Time;durP1;ratioP1;P1;durP2;ratioP2;P2;SDS_P1;SDS_P2;PMS_P1;PMS_P2;Temp;Humidity;BMP_temperature;BMP_pressure;BME280_temperature;BME280_humidity;BME280_pressure;Samples;Min_cycle;Max_cycle;Signal;HPM_P1;HPM_P2
2023/12/27 00:01:11;;;;;;;6.47;2.65;;;2.50;99.90;;;;;;5022588;28;20032;-77
2023/12/27 00:03:37;;;;;;;7.43;2.65;;;2.40;99.90;;;;;;5023259;28;20117;-77
2023/12/27 00:06:03;;;;;;;8.15;2.90;;;2.40;99.90;;;;;;5022300;28;20104;-77
2023/12/27 00:08:28;;;;;;;6.45;3.05;;;2.30;99.90;;;;;;5040122;28;20029;-77
2023/12/27 00:10:54;;;;;;;17.30;3.28;;;2.30;99.90;;;;;;5022696;28;20124;-77
2023/12/27 00:13:20;;;;;;;8.05;2.35;;;2.30;99.90;;;;;;5039925;28;20052;-77
2023/12/27 00:15:46;;;;;;;12.50;4.65;;;2.30;99.90;;;;;;5022312;28;20392;-77
2023/12/27 00:18:12;;;;;;;9.07;2.78;;;2.20;99.90;;;;;;5023223;28;20022;-77
2023/12/27 00:20:37;;;;;;;9.75;3.38;;;2.20;99.90;;;;;;5021841;28;20622;-77
2023/12/27 00:23:03;;;;;;;9.65;2.97;;;2.20;99.90;;;;;;5023303;28;20060;-77
2023/12/27 00:25:28;;;;;;;7.18;2.30;;;2.20;99.90;;;;;;5040121;28;20503;-77
2023/12/27 00:27:54;;;;;;;6.72;2.45;;;2.10;99.90;;;;;;5022076;28;20529;-77
2023/12/27 00:30:20;;;;;;;11.57;3.03;;;2.10;99.90;;;;;;5022425;28;20018;-77
2023/12/27 00:32:45;;;;;;;10.32;2.70;;;2.10;99.90;;;;;;5040468;28;20071;-77
2023/12/27 00:35:11;;;;;;;10.48;2.75;;;2.00;99.90;;;;;;5021544;28;20112;-78
2023/12/27 00:37:36;;;;;;;6.00;2.33;;;2.00;99.90;;;;;;5021501;28;20033;-77
2023/12/27 00:40:02;;;;;;;11.95;2.38;;;2.00;99.90;;;;;;5039519;28;20029;-76
2023/12/27 00:42:28;;;;;;;8.40;2.97;;;2.00;99.90;;;;;;5021354;28;20083;-77
2023/12/27 00:44:53;;;;;;;10.88;2.53;;;1.90;99.90;;;;;;5039006;28;20021;-77
2023/12/27 00:47:19;;;;;;;8.68;2.00;;;1.90;99.90;;;;;;5037939;28;20032;-76
2023/12/27 00:49:44;;;;;;;6.97;2.80;;;1.80;99.90;;;;;;5037826;28;20106;-77
2023/12/27 00:52:10;;;;;;;8.65;2.17;;;1.80;99.90;;;;;;5038317;28;20026;-77
2023/12/27 00:54:36;;;;;;;8.57;2.50;;;1.80;99.90;;;;;;5021831;28;20554;-78
2023/12/27 00:57:02;;;;;;;6.60;2.90;;;1.80;99.90;;;;;;5038130;28;20025;-78
2023/12/27 00:59:27;;;;;;;10.27;2.92;;;1.80;99.90;;;;;;5039010;28;20531;-77
2023/12/27 01:01:53;;;;;;;13.05;2.42;;;1.80;99.90;;;;;;5021097;28;20091;-77
2023/12/27 01:04:19;;;;;;;6.18;2.20;;;1.80;99.90;;;;;;5040663;28;20088;-77
2023/12/27 01:06:44;;;;;;;7.00;2.30;;;1.80;99.90;;;;;;5039021;28;20047;-78
2023/12/27 01:09:10;;;;;;;11.07;3.00;;;1.80;99.90;;;;;;5022453;28;20026;-78
2023/12/27 01:11:35;;;;;;;8.40;2.65;;;1.80;99.90;;;;;;5022278;28;20053;-78
2023/12/27 01:14:02;;;;;;;5.35;2.28;;;1.80;99.90;;;;;;5039563;28;20081;-78
2023/12/27 01:16:28;;;;;;;9.45;3.15;;;1.80;99.90;;;;;;5039538;28;20028;-78
2023/12/27 01:18:53;;;;;;;10.00;3.13;;;1.80;99.90;;;;;;5037708;28;20025;-77
2023/12/27 01:21:20;;;;;;;12.20;3.88;;;1.80;99.90;;;;;;5039384;28;20105;-78
2023/12/27 01:23:46;;;;;;;7.55;2.45;;;1.80;99.90;;;;;;5039882;28;20021;-78
2023/12/27 01:26:12;;;;;;;12.52;3.40;;;1.80;99.90;;;;;;5021761;28;20022;-78
2023/12/27 01:28:37;;;;;;;13.60;3.45;;;1.90;99.90;;;;;;5040144;28;20041;-78
2023/12/27 01:31:03;;;;;;;15.27;4.03;;;1.90;99.90;;;;;;5021942;28;20036;-78
2023/12/27 01:33:28;;;;;;;9.63;3.90;;;1.90;99.90;;;;;;5021638;28;20120;-78
2023/12/27 01:35:54;;;;;;;8.13;3.78;;;1.90;99.90;;;;;;5039123;28;20481;-78
2023/12/27 01:38:20;;;;;;;13.10;3.53;;;1.80;99.90;;;;;;5039102;28;20029;-78
2023/12/27 01:40:50;;;;;;;14.10;3.53;;;1.80;99.90;;;;;;5039372;28;20485;-78
2023/12/27 01:43:15;;;;;;;9.18;3.58;;;1.90;99.90;;;;;;5039512;28;20485;-78
2023/12/27 01:45:42;;;;;;;9.73;4.13;;;1.80;99.90;;;;;;5020862;28;20024;-78
2023/12/27 01:48:07;;;;;;;8.40;2.92;;;1.80;99.90;;;;;;5039237;28;20104;-78
2023/12/27 01:50:33;;;;;;;13.82;4.22;;;1.80;99.90;;;;;;5021327;28;20064;-78
2023/12/27 01:53:00;;;;;;;22.50;3.67;;;1.80;99.90;;;;;;5038963;28;20525;-78
2023/12/27 01:55:26;;;;;;;13.55;3.65;;;1.80;99.90;;;;;;5039464;28;20022;-78
2023/12/27 01:57:52;;;;;;;11.65;3.97;;;1.70;99.90;;;;;;5020775;28;20021;-78
2023/12/27 02:00:18;;;;;;;9.77;3.38;;;1.80;99.90;;;;;;5037341;28;20120;-79
2023/12/27 02:02:44;;;;;;;12.70;3.83;;;1.70;99.90;;;;;;5039174;28;20439;-79
2023/12/27 02:05:10;;;;;;;12.25;4.38;;;1.70;99.90;;;;;;5019791;28;20025;-79
2023/12/27 02:07:36;;;;;;;11.90;3.83;;;1.80;99.90;;;;;;5037379;28;20037;-79
2023/12/27 02:10:03;;;;;;;12.30;4.43;;;1.80;99.90;;;;;;5036403;28;20042;-79
2023/12/27 02:12:30;;;;;;;11.00;3.60;;;1.90;99.90;;;;;;5019563;28;20029;-79
2023/12/27 02:14:56;;;;;;;12.00;3.75;;;2.00;99.90;;;;;;5019900;28;20022;-79
2023/12/27 02:17:25;;;;;;;15.65;3.65;;;1.90;99.90;;;;;;5019685;28;20125;-80
2023/12/27 02:19:52;;;;;;;8.93;3.90;;;1.90;99.90;;;;;;5019412;28;20029;-78
2023/12/27 02:22:22;;;;;;;14.43;3.65;;;1.90;99.90;;;;;;5035852;28;20017;-79
2023/12/27 02:24:53;;;;;;;13.65;4.35;;;2.00;99.90;;;;;;5019691;28;20022;-79
2023/12/27 02:27:20;;;;;;;12.48;4.20;;;2.00;99.90;;;;;;5020462;28;20029;-79
2023/12/27 02:29:46;;;;;;;21.08;4.75;;;2.00;99.90;;;;;;5037985;28;20504;-79
2023/12/27 02:32:14;;;;;;;16.83;4.43;;;2.00;99.90;;;;;;5038239;28;20025;-79
2023/12/27 02:34:40;;;;;;;17.88;5.32;;;2.10;99.90;;;;;;5020231;28;20029;-79
2023/12/27 02:37:06;;;;;;;13.65;3.80;;;2.10;99.90;;;;;;5037862;28;20022;-79
2023/12/27 02:39:31;;;;;;;15.90;4.15;;;2.00;99.90;;;;;;5036609;28;20075;-79
2023/12/27 02:41:57;;;;;;;13.00;3.83;;;2.10;99.90;;;;;;5020168;28;20104;-79
2023/12/27 02:44:26;;;;;;;13.02;3.88;;;2.20;99.90;;;;;;5019368;28;20033;-78
2023/12/27 02:46:52;;;;;;;13.13;3.63;;;2.20;99.90;;;;;;5019717;28;20018;-78
2023/12/27 02:49:18;;;;;;;17.85;4.25;;;2.20;99.90;;;;;;5019813;28;20005;-78
2023/12/27 02:51:43;;;;;;;14.57;3.97;;;2.30;99.90;;;;;;5037332;28;20025;-78
2023/12/27 02:54:09;;;;;;;16.17;4.25;;;2.40;99.90;;;;;;5037467;28;20029;-78
2023/12/27 02:56:34;;;;;;;14.02;4.53;;;2.40;99.90;;;;;;5036359;28;20021;-78
2023/12/27 02:59:00;;;;;;;15.77;4.60;;;2.50;99.90;;;;;;5036839;28;20022;-78
2023/12/27 03:01:26;;;;;;;12.23;4.28;;;2.60;99.90;;;;;;5037243;28;20037;-78
2023/12/27 03:03:51;;;;;;;15.40;4.22;;;3.90;99.90;;;;;;5038537;28;20017;-78
2023/12/27 03:06:17;;;;;;;20.55;4.45;;;2.70;99.90;;;;;;5037934;28;20152;-78
2023/12/27 03:08:43;;;;;;;10.55;4.30;;;2.70;99.90;;;;;;5038802;28;20072;-78
2023/12/27 03:11:08;;;;;;;15.68;4.40;;;2.70;99.90;;;;;;5020764;28;20075;-79
2023/12/27 03:13:34;;;;;;;15.68;4.22;;;2.70;99.90;;;;;;5036462;28;20061;-78
2023/12/27 03:16:06;;;;;;;15.65;4.13;;;2.80;99.90;;;;;;5036899;28;20026;-78
2023/12/27 03:18:36;;;;;;;13.05;4.65;;;2.90;99.90;;;;;;5037330;28;20033;-76
2023/12/27 03:21:02;;;;;;;17.27;4.60;;;2.90;99.90;;;;;;5019227;28;20052;-78
2023/12/27 03:23:27;;;;;;;9.98;4.70;;;3.00;99.90;;;;;;5035340;28;20010;-78
2023/12/27 03:25:56;;;;;;;15.55;3.78;;;3.00;99.90;;;;;;5035795;28;20385;-78
2023/12/27 03:28:23;;;;;;;16.00;4.00;;;3.10;99.90;;;;;;5019539;28;20022;-78
2023/12/27 03:30:48;;;;;;;14.45;3.63;;;3.10;99.90;;;;;;5019445;28;20021;-78
2023/12/27 03:33:14;;;;;;;15.35;4.15;;;3.10;99.90;;;;;;5036811;28;20036;-78
2023/12/27 03:35:41;;;;;;;18.77;3.90;;;3.20;99.90;;;;;;5035224;28;20026;-78
2023/12/27 03:38:07;;;;;;;13.60;3.30;;;3.30;99.90;;;;;;5036772;28;20033;-79
2023/12/27 03:40:33;;;;;;;16.38;4.18;;;3.30;99.90;;;;;;5019635;28;20040;-79
2023/12/27 03:42:58;;;;;;;11.68;3.65;;;3.40;99.90;;;;;;5019424;28;20071;-78
2023/12/27 03:45:24;;;;;;;10.93;3.83;;;3.40;99.90;;;;;;5035342;28;20018;-78
2023/12/27 03:47:49;;;;;;;14.57;3.95;;;3.40;99.90;;;;;;5020149;28;20013;-79
2023/12/27 03:50:15;;;;;;;15.55;4.70;;;3.50;99.90;;;;;;5037107;28;20044;-79
2023/12/27 03:52:44;;;;;;;15.32;3.60;;;3.50;99.90;;;;;;5019128;28;20097;-78
2023/12/27 03:55:10;;;;;;;13.50;4.05;;;3.50;99.90;;;;;;5035450;28;20109;-78
2023/12/27 03:57:37;;;;;;;14.40;3.88;;;3.50;99.90;;;;;;5037136;28;20048;-78
2023/12/27 04:00:05;;;;;;;13.38;4.15;;;3.60;99.90;;;;;;5037739;28;20109;-78
2023/12/27 04:02:30;;;;;;;10.05;4.00;;;3.60;99.90;;;;;;5018718;28;20029;-78
2023/12/27 04:04:56;;;;;;;13.15;4.15;;;3.60;99.90;;;;;;5037065;28;20018;-79
2023/12/27 04:07:22;;;;;;;12.30;3.38;;;3.70;99.90;;;;;;5018854;28;20028;-79
2023/12/27 04:09:47;;;;;;;10.48;3.53;;;3.70;99.90;;;;;;5034709;28;20049;-78
2023/12/27 04:12:13;;;;;;;12.40;3.83;;;3.80;99.90;;;;;;5034997;28;20515;-78
2023/12/27 04:14:38;;;;;;;14.60;4.63;;;3.70;99.90;;;;;;5017220;28;20029;-78
2023/12/27 04:17:04;;;;;;;20.75;4.38;;;3.80;99.90;;;;;;5018455;28;20022;-79
2023/12/27 04:19:29;;;;;;;15.07;3.53;;;3.80;99.90;;;;;;5018695;28;20036;-78
2023/12/27 04:21:55;;;;;;;12.15;4.03;;;3.90;99.90;;;;;;5037833;28;20354;-78
2023/12/27 04:24:20;;;;;;;21.90;4.72;;;3.90;99.90;;;;;;5035854;28;20473;-78
2023/12/27 04:26:46;;;;;;;10.60;3.42;;;3.90;99.90;;;;;;5037714;28;20485;-78
2023/12/27 04:29:11;;;;;;;15.30;3.22;;;3.90;99.90;;;;;;5023270;28;20100;-77
2023/12/27 04:31:37;;;;;;;12.73;3.25;;;3.90;99.90;;;;;;5040445;28;20029;-77
2023/12/27 04:34:03;;;;;;;12.07;4.38;;;4.00;99.90;;;;;;5039425;28;20026;-78
2023/12/27 04:36:29;;;;;;;17.67;3.85;;;4.00;99.90;;;;;;5037818;28;20044;-77
2023/12/27 04:38:55;;;;;;;11.95;3.55;;;4.00;99.90;;;;;;5038463;28;20025;-78
2023/12/27 04:41:20;;;;;;;10.65;3.00;;;4.10;99.90;;;;;;5022522;28;20021;-77
2023/12/27 04:43:46;;;;;;;15.02;3.13;;;4.10;99.90;;;;;;5038998;28;20117;-77
2023/12/27 04:46:11;;;;;;;10.27;3.10;;;4.10;99.90;;;;;;5037960;28;20066;-77
2023/12/27 04:48:37;;;;;;;9.60;2.85;;;4.10;99.90;;;;;;5039413;28;20065;-77
2023/12/27 04:51:03;;;;;;;15.77;3.25;;;5.80;99.90;;;;;;5022314;28;20087;-77
2023/12/27 04:53:28;;;;;;;17.92;4.57;;;4.10;99.90;;;;;;5038799;28;20044;-77
2023/12/27 04:55:54;;;;;;;16.20;4.05;;;4.10;99.90;;;;;;5039087;28;20044;-78
2023/12/27 04:58:19;;;;;;;11.30;3.90;;;4.20;99.90;;;;;;5020806;28;20370;-78
2023/12/27 05:00:45;;;;;;;15.32;3.95;;;4.20;99.90;;;;;;5037654;28;20464;-78
2023/12/27 05:03:11;;;;;;;11.20;2.55;;;4.20;99.90;;;;;;5036828;28;20049;-77
2023/12/27 05:05:36;;;;;;;11.38;3.88;;;4.20;99.90;;;;;;5020819;28;20022;-77
2023/12/27 05:08:02;;;;;;;12.85;3.67;;;4.30;99.90;;;;;;5038087;28;20044;-78
2023/12/27 05:10:28;;;;;;;17.15;3.05;;;4.30;99.90;;;;;;5038456;28;20108;-80
2023/12/27 05:12:53;;;;;;;10.00;3.53;;;4.30;99.90;;;;;;5037398;28;20082;-79
2023/12/27 05:15:19;;;;;;;10.45;3.17;;;4.30;99.90;;;;;;5037630;28;20120;-78
2023/12/27 05:17:45;;;;;;;11.60;3.17;;;4.30;99.90;;;;;;5019085;28;20036;-76
2023/12/27 05:20:13;;;;;;;13.25;2.85;;;4.40;99.90;;;;;;5036871;28;20021;-76
2023/12/27 05:22:40;;;;;;;13.75;2.80;;;4.40;99.90;;;;;;5036729;28;20104;-76
2023/12/27 05:25:08;;;;;;;14.90;3.25;;;4.40;99.90;;;;;;5019220;28;20032;-77
2023/12/27 05:27:34;;;;;;;9.40;3.80;;;4.40;99.90;;;;;;5018817;28;20053;-78
2023/12/27 05:30:01;;;;;;;13.55;2.97;;;4.40;99.90;;;;;;5037736;28;20374;-78
2023/12/27 05:32:26;;;;;;;16.17;4.70;;;4.50;99.90;;;;;;5020239;28;20543;-78
2023/12/27 05:34:52;;;;;;;12.77;3.30;;;4.50;99.90;;;;;;5038832;28;20022;-78
2023/12/27 05:37:19;;;;;;;17.05;4.07;;;4.50;99.90;;;;;;5021096;28;20025;-79
2023/12/27 05:39:45;;;;;;;18.52;3.40;;;;;;;;;;5037815;28;20089;-79
2023/12/27 05:42:13;;;;;;;9.35;3.08;;;4.60;99.90;;;;;;5037929;28;20103;-78
2023/12/27 05:44:39;;;;;;;17.92;4.30;;;4.60;99.90;;;;;;5018937;28;20026;-78
2023/12/27 05:47:05;;;;;;;9.98;3.55;;;4.70;99.90;;;;;;5018620;28;20389;-79
2023/12/27 05:49:30;;;;;;;8.38;3.47;;;4.70;99.90;;;;;;5037889;28;20018;-79
2023/12/27 05:51:56;;;;;;;13.48;3.17;;;4.70;99.90;;;;;;5019062;28;20021;-79
2023/12/27 05:54:23;;;;;;;10.60;3.63;;;4.80;99.90;;;;;;5037516;28;20109;-79
2023/12/27 05:56:49;;;;;;;11.20;3.50;;;;;;;;;;5019198;28;20084;-79
2023/12/27 05:59:15;;;;;;;10.13;2.65;;;4.80;99.90;;;;;;5019170;28;20053;-79
2023/12/27 06:01:48;;;;;;;14.32;4.18;;;4.80;99.90;;;;;;5034957;28;20071;-79
2023/12/27 06:04:17;;;;;;;13.60;3.38;;;4.80;99.90;;;;;;5020481;28;20044;-78
2023/12/27 06:06:44;;;;;;;15.73;3.10;;;4.80;99.90;;;;;;5035587;28;20013;-77
2023/12/27 06:09:10;;;;;;;11.00;3.17;;;4.90;99.90;;;;;;5036665;28;20052;-78
2023/12/27 06:11:37;;;;;;;18.38;3.20;;;4.90;99.90;;;;;;5037155;28;20084;-78
2023/12/27 06:14:03;;;;;;;11.95;3.15;;;;;;;;;;5018876;28;20044;-79
2023/12/27 06:16:29;;;;;;;14.38;3.42;;;5.00;99.90;;;;;;5019174;28;20026;-79
2023/12/27 06:18:56;;;;;;;15.57;3.42;;;5.00;99.90;;;;;;5019418;28;20485;-79
2023/12/27 06:21:22;;;;;;;15.07;2.55;;;5.00;99.90;;;;;;5034560;28;20021;-79
2023/12/27 06:23:48;;;;;;;13.88;2.40;;;5.10;99.90;;;;;;5019506;28;20117;-78
2023/12/27 06:26:13;;;;;;;18.35;2.50;;;5.10;99.90;;;;;;5036353;28;20029;-77
2023/12/27 06:28:41;;;;;;;14.55;2.88;;;5.10;99.90;;;;;;5018048;28;20025;-78
2023/12/27 06:31:07;;;;;;;11.68;2.53;;;5.10;99.90;;;;;;5035567;28;20489;-78
2023/12/27 06:33:32;;;;;;;10.13;2.70;;;5.10;99.90;;;;;;5018377;28;20049;-78
2023/12/27 06:35:58;;;;;;;16.13;2.88;;;5.20;99.90;;;;;;5017741;28;20026;-77
2023/12/27 06:38:23;;;;;;;21.80;3.10;;;5.10;99.90;;;;;;5036337;28;20036;-78
2023/12/27 06:40:49;;;;;;;10.75;3.13;;;5.10;99.90;;;;;;5035301;28;20021;-79
2023/12/27 06:43:15;;;;;;;11.88;3.30;;;5.20;99.90;;;;;;5018208;28;20472;-78
2023/12/27 06:45:40;;;;;;;12.90;3.17;;;5.20;99.90;;;;;;5035653;28;20477;-78
2023/12/27 06:48:06;;;;;;;15.60;2.75;;;5.20;99.90;;;;;;5018929;28;20556;-78
2023/12/27 06:50:31;;;;;;;15.30;3.58;;;5.30;99.90;;;;;;5035436;28;20069;-78
2023/12/27 06:52:57;;;;;;;16.17;2.45;;;8.60;99.90;;;;;;5037377;28;20162;-78
2023/12/27 06:55:23;;;;;;;11.98;3.15;;;5.40;99.90;;;;;;5019591;28;20014;-79
2023/12/27 06:57:49;;;;;;;12.35;1.95;;;;;;;;;;5018921;28;20419;-79
2023/12/27 07:00:15;;;;;;;11.23;2.75;;;5.40;99.90;;;;;;5037453;28;20029;-79
2023/12/27 07:02:41;;;;;;;12.50;2.15;;;5.40;99.90;;;;;;5036311;28;20079;-80
2023/12/27 07:05:07;;;;;;;17.75;2.53;;;5.40;99.90;;;;;;5019781;28;20033;-81
2023/12/27 07:07:34;;;;;;;13.73;2.53;;;;;;;;;;5020031;28;20087;-80
2023/12/27 07:10:00;;;;;;;8.23;1.77;;;5.40;99.90;;;;;;5019765;28;20117;-80
2023/12/27 07:12:26;;;;;;;13.95;3.08;;;5.40;99.90;;;;;;5019695;28;20526;-80
2023/12/27 07:14:51;;;;;;;8.45;2.08;;;5.50;99.90;;;;;;5020209;28;20017;-80
2023/12/27 07:17:17;;;;;;;10.43;1.95;;;5.50;99.90;;;;;;5035967;28;20112;-79
2023/12/27 07:19:42;;;;;;;7.22;1.95;;;5.60;99.90;;;;;;5036635;28;20029;-79
2023/12/27 07:22:08;;;;;;;11.27;2.08;;;5.60;99.90;;;;;;5037450;28;20018;-80
2023/12/27 07:24:38;;;;;;;11.63;1.83;;;5.60;99.90;;;;;;5036490;28;20030;-79
2023/12/27 07:27:04;;;;;;;11.00;1.65;;;5.60;99.90;;;;;;5018626;28;20013;-78
2023/12/27 07:29:30;;;;;;;11.07;1.70;;;5.60;99.90;;;;;;5035287;28;20399;-78
2023/12/27 07:31:56;;;;;;;11.13;2.00;;;5.70;99.90;;;;;;5018530;28;20097;-79
2023/12/27 07:34:21;;;;;;;10.10;2.63;;;5.70;99.90;;;;;;5036066;28;20056;-80
2023/12/27 07:36:48;;;;;;;14.32;1.48;;;5.70;99.90;;;;;;5035793;28;20018;-80
2023/12/27 07:39:15;;;;;;;8.82;1.65;;;5.70;99.90;;;;;;5035678;28;20396;-79
2023/12/27 07:41:42;;;;;;;10.68;1.45;;;5.80;99.90;;;;;;5036932;28;20024;-80
2023/12/27 07:44:08;;;;;;;12.38;2.08;;;5.80;99.90;;;;;;5034712;28;20033;-80
2023/12/27 07:46:34;;;;;;;14.20;1.80;;;5.80;99.90;;;;;;5034789;28;20032;-80
2023/12/27 07:49:02;;;;;;;10.50;2.25;;;5.80;99.90;;;;;;5018887;28;20104;-81
2023/12/27 07:51:30;;;;;;;11.88;3.00;;;5.80;99.90;;;;;;5018055;28;20112;-79
2023/12/27 07:53:56;;;;;;;10.40;1.85;;;;;;;;;;5036435;28;20088;-80
2023/12/27 07:56:22;;;;;;;7.95;2.83;;;5.80;99.90;;;;;;5018798;28;20485;-79
2023/12/27 07:58:48;;;;;;;12.07;2.05;;;5.80;99.90;;;;;;5035937;28;20539;-77
2023/12/27 08:01:14;;;;;;;12.23;2.00;;;5.80;99.90;;;;;;5017818;28;20025;-77
2023/12/27 08:03:40;;;;;;;9.00;2.67;;;5.80;99.90;;;;;;5022471;28;20434;-78
2023/12/27 08:06:06;;;;;;;10.48;2.50;;;5.90;99.90;;;;;;5022461;28;20028;-78
2023/12/27 08:08:34;;;;;;;6.88;2.10;;;5.90;99.90;;;;;;5039457;28;20021;-78
2023/12/27 08:11:01;;;;;;;7.70;1.75;;;6.70;99.90;;;;;;5021240;28;20493;-78
2023/12/27 08:13:27;;;;;;;4.38;1.15;;;5.90;99.90;;;;;;5020875;28;20461;-79
2023/12/27 08:15:52;;;;;;;10.95;2.65;;;5.90;99.90;;;;;;5021003;28;20057;-78
2023/12/27 08:18:18;;;;;;;4.70;1.40;;;5.90;99.90;;;;;;5022404;28;20032;-79
2023/12/27 08:20:43;;;;;;;5.68;1.70;;;5.90;99.90;;;;;;5038605;28;20399;-80
2023/12/27 08:23:09;;;;;;;3.97;1.33;;;6.00;99.90;;;;;;5040587;28;20018;-79
2023/12/27 08:25:37;;;;;;;8.80;1.65;;;6.00;99.90;;;;;;5040705;28;20024;-80
2023/12/27 08:28:05;;;;;;;4.70;2.08;;;6.00;99.90;;;;;;5023116;28;20500;-79
2023/12/27 08:30:30;;;;;;;6.07;2.33;;;6.00;99.90;;;;;;5024109;28;20029;-79
2023/12/27 08:32:57;;;;;;;6.97;1.65;;;6.00;99.90;;;;;;5023113;28;20497;-80
2023/12/27 08:35:26;;;;;;;2.70;1.00;;;6.10;99.90;;;;;;5023553;28;20017;-80
2023/12/27 08:37:52;;;;;;;4.35;1.58;;;6.10;99.90;;;;;;5041132;28;20564;-80
2023/12/27 08:40:25;;;;;;;3.63;2.05;;;;;;;;;;5042439;28;20084;-80
2023/12/27 08:42:51;;;;;;;5.18;1.60;;;6.10;99.90;;;;;;5024740;28;20068;-81
2023/12/27 08:45:17;;;;;;;3.47;1.50;;;6.10;99.90;;;;;;5041869;28;20029;-80
2023/12/27 08:47:43;;;;;;;3.88;1.67;;;6.20;99.90;;;;;;5041193;28;20036;-80
2023/12/27 08:50:09;;;;;;;1.90;1.15;;;6.20;99.90;;;;;;5021983;28;20558;-79
2023/12/27 08:52:35;;;;;;;5.55;1.42;;;6.30;99.90;;;;;;5020958;28;20021;-78
2023/12/27 08:55:02;;;;;;;2.75;1.48;;;6.30;99.90;;;;;;5022186;28;20018;-80
2023/12/27 08:57:29;;;;;;;3.92;1.73;;;6.30;99.90;;;;;;5039812;28;20021;-82
2023/12/27 08:59:55;;;;;;;5.25;1.50;;;6.30;99.90;;;;;;5024523;28;20021;-82
2023/12/27 09:02:21;;;;;;;2.33;1.52;;;6.30;99.90;;;;;;5022253;28;20032;-82
2023/12/27 09:04:46;;;;;;;3.65;1.92;;;6.30;99.90;;;;;;5022165;28;20104;-80
2023/12/27 09:07:12;;;;;;;4.38;2.28;;;6.30;99.90;;;;;;5040275;28;20156;-83
2023/12/27 09:09:37;;;;;;;4.45;1.65;;;6.40;99.90;;;;;;5040220;28;20076;-82
2023/12/27 09:12:04;;;;;;;3.72;1.95;;;6.40;99.90;;;;;;5021642;28;20025;-83
2023/12/27 09:14:30;;;;;;;3.85;1.80;;;;;;;;;;5037780;28;20057;-82
2023/12/27 09:16:56;;;;;;;5.32;2.47;;;6.40;99.90;;;;;;5023087;28;20025;-82
2023/12/27 09:19:25;;;;;;;3.40;2.30;;;6.30;99.90;;;;;;5021534;28;20155;-83
2023/12/27 09:21:50;;;;;;;4.38;1.92;;;6.50;99.90;;;;;;5023559;28;20515;-82
2023/12/27 09:24:16;;;;;;;6.32;2.30;;;6.60;99.90;;;;;;5040861;28;20025;-83
2023/12/27 09:26:43;;;;;;;6.07;1.95;;;6.60;99.90;;;;;;5039572;28;20020;-83
2023/12/27 09:29:10;;;;;;;5.00;2.28;;;;;;;;;;5023450;28;20047;-82
2023/12/27 09:31:36;;;;;;;5.40;2.85;;;;;;;;;;5023418;28;20461;-82
2023/12/27 09:34:02;;;;;;;4.35;2.47;;;6.80;99.90;;;;;;5040995;28;20112;-84
2023/12/27 09:36:28;;;;;;;7.95;3.20;;;6.80;99.90;;;;;;5026202;28;20066;-83
2023/12/27 09:38:54;;;;;;;6.05;2.53;;;6.80;99.90;;;;;;5026098;28;20112;-81
2023/12/27 09:41:20;;;;;;;6.88;3.05;;;6.80;99.90;;;;;;5026852;28;20124;-82
2023/12/27 09:43:46;;;;;;;6.40;2.92;;;9.70;99.90;;;;;;5027583;28;20029;-81
2023/12/27 09:46:13;;;;;;;7.85;3.17;;;6.80;99.90;;;;;;5044260;28;20029;-83
2023/12/27 09:48:41;;;;;;;4.53;2.72;;;6.90;99.90;;;;;;5026667;28;20029;-79
2023/12/27 09:51:07;;;;;;;7.07;3.28;;;6.90;99.90;;;;;;5025240;28;20030;-83
2023/12/27 09:53:33;;;;;;;6.30;3.17;;;7.00;99.90;;;;;;5037539;28;20480;-84
2023/12/27 09:56:00;;;;;;;9.85;3.28;;;7.00;99.90;;;;;;5039718;28;20029;-84
2023/12/27 09:58:29;;;;;;;6.78;3.15;;;7.10;99.90;;;;;;5038869;28;20026;-84
2023/12/27 10:01:02;;;;;;;6.63;3.28;;;7.10;99.90;;;;;;5021080;28;20033;-84
2023/12/27 10:03:35;;;;;;;5.60;3.10;;;7.20;99.90;;;;;;5020578;28;20021;-83
2023/12/27 10:06:33;;;;;;;5.95;3.30;;;7.20;99.90;;;;;;5039558;28;20497;-84
2023/12/27 10:09:00;;;;;;;6.40;3.10;;;7.20;99.90;;;;;;5006155;28;20100;-83
2023/12/27 10:11:27;;;;;;;7.65;3.50;;;7.30;99.90;;;;;;5021910;28;20036;-83
2023/12/27 10:13:53;;;;;;;6.75;2.80;;;;;;;;;;5039426;28;20076;-83
2023/12/27 10:16:19;;;;;;;6.38;3.50;;;;;;;;;;5039322;28;20386;-84
2023/12/27 10:18:48;;;;;;;5.80;2.83;;;7.40;99.90;;;;;;5020316;28;20026;-84
2023/12/27 10:21:14;;;;;;;;;;;7.40;99.90;;;;;;5038910;28;20086;-82
2023/12/27 10:23:40;;;;;;;6.63;2.78;;;7.40;99.90;;;;;;5038802;28;19905;-84
2023/12/27 10:26:06;;;;;;;6.95;3.50;;;7.50;99.90;;;;;;5037226;28;20081;-85
2023/12/27 10:28:32;;;;;;;7.50;3.75;;;7.50;99.90;;;;;;5050164;28;20459;-80
2023/12/27 10:30:58;;;;;;;5.82;2.95;;;;;;;;;;5059079;28;20028;-81
2023/12/27 10:33:24;;;;;;;8.75;3.85;;;7.60;99.90;;;;;;5041402;28;20120;-81
2023/12/27 10:35:50;;;;;;;6.15;3.40;;;7.60;99.90;;;;;;5055725;28;20079;-80
2023/12/27 10:38:16;;;;;;;6.22;3.40;;;7.60;99.90;;;;;;5058295;28;20443;-81
2023/12/27 10:40:42;;;;;;;13.60;3.38;;;;;;;;;;5041500;28;20017;-80
2023/12/27 10:43:08;;;;;;;8.00;3.35;;;7.70;99.90;;;;;;5040799;28;20087;-80
2023/12/27 10:45:35;;;;;;;7.45;3.28;;;;;;;;;;5059476;28;20021;-80
2023/12/27 10:48:06;;;;;;;7.53;3.90;;;7.70;99.90;;;;;;5058464;28;20085;-80
2023/12/27 10:50:33;;;;;;;6.70;3.28;;;7.70;99.90;;;;;;5041176;28;20025;-81
2023/12/27 10:53:06;;;;;;;5.70;3.17;;;7.70;99.90;;;;;;5058962;28;20032;-81
2023/12/27 10:55:33;;;;;;;6.63;2.92;;;7.80;99.90;;;;;;5038806;28;20025;-78
2023/12/27 10:58:01;;;;;;;8.05;3.63;;;7.80;99.90;;;;;;5055428;28;20403;-78
2023/12/27 11:00:28;;;;;;;9.95;3.03;;;7.80;99.90;;;;;;5054342;28;20106;-79
2023/12/27 11:02:55;;;;;;;7.25;3.58;;;7.80;99.90;;;;;;5036753;28;20027;-79
2023/12/27 11:05:22;;;;;;;6.82;3.70;;;7.80;99.90;;;;;;5056827;28;20071;-80
2023/12/27 11:07:50;;;;;;;7.38;3.00;;;7.80;99.90;;;;;;5058561;28;20029;-80
2023/12/27 11:10:16;;;;;;;7.75;3.60;;;7.80;99.90;;;;;;5040607;28;20017;-80
2023/12/27 11:12:45;;;;;;;5.68;2.85;;;7.90;99.90;;;;;;5057888;28;20476;-80
2023/12/27 11:15:13;;;;;;;8.68;3.00;;;7.90;99.90;;;;;;5040101;28;20101;-80
2023/12/27 11:17:40;;;;;;;7.65;3.25;;;7.90;99.90;;;;;;5036421;28;20388;-80
2023/12/27 11:20:08;;;;;;;6.22;3.05;;;7.90;99.90;;;;;;5037736;28;20082;-80
2023/12/27 11:22:35;;;;;;;7.45;2.75;;;7.90;99.90;;;;;;5038957;28;20029;-85
2023/12/27 11:25:02;;;;;;;6.43;2.92;;;;;;;;;;5056083;28;20100;-80
2023/12/27 11:27:28;;;;;;;5.30;2.65;;;8.00;99.90;;;;;;5039219;28;20021;-81
2023/12/27 11:29:54;;;;;;;4.45;2.95;;;8.00;99.90;;;;;;5039172;28;20379;-80
2023/12/27 11:32:20;;;;;;;6.10;2.30;;;8.00;99.90;;;;;;5056855;28;20380;-78
2023/12/27 11:34:46;;;;;;;6.18;2.10;;;8.00;99.90;;;;;;5053933;28;20061;-78
2023/12/27 11:37:16;;;;;;;8.10;2.72;;;8.00;99.90;;;;;;5035291;28;20460;-78
2023/12/27 11:39:47;;;;;;;6.10;2.40;;;8.20;99.90;;;;;;5035895;28;20531;-79
2023/12/27 11:42:15;;;;;;;5.35;1.70;;;8.80;99.90;;;;;;5053848;28;20090;-78
2023/12/27 11:44:48;;;;;;;2.55;1.58;;;8.20;99.90;;;;;;5035611;28;20029;-78
2023/12/27 11:47:19;;;;;;;3.75;1.92;;;8.30;99.90;;;;;;5036842;28;20044;-78
2023/12/27 11:50:23;;;;;;;3.60;1.70;;;8.30;99.90;;;;;;5054009;28;20071;-78
2023/12/27 11:52:51;;;;;;;5.32;1.35;;;8.40;99.90;;;;;;5039486;28;20373;-78
2023/12/27 11:55:20;;;;;;;2.33;0.90;;;8.50;99.90;;;;;;5052569;28;20024;-79
2023/12/27 11:57:55;;;;;;;5.85;1.60;;;8.50;99.90;;;;;;5053562;28;20112;-78
2023/12/27 12:00:25;;;;;;;5.03;1.52;;;8.60;99.90;;;;;;5035996;28;20024;-78
2023/12/27 12:02:59;;;;;;;3.67;0.50;;;8.60;99.90;;;;;;5053428;28;20021;-78
2023/12/27 12:05:40;;;;;;;1.70;1.08;;;8.70;99.90;;;;;;5035677;28;20029;-78
2023/12/27 12:08:21;;;;;;;6.45;1.02;;;8.70;99.90;;;;;;5035798;28;20055;-78
2023/12/27 12:11:05;;;;;;;2.45;0.98;;;9.90;99.90;;;;;;5054100;28;20017;-79
2023/12/27 12:13:31;;;;;;;5.75;1.55;;;8.80;99.90;;;;;;5035760;28;20466;-78
2023/12/27 12:15:57;;;;;;;4.60;0.73;;;8.80;99.90;;;;;;5035483;28;20036;-78
2023/12/27 12:18:24;;;;;;;1.63;0.63;;;8.90;99.90;;;;;;5053273;28;20017;-78
2023/12/27 12:20:50;;;;;;;4.70;1.30;;;8.90;99.90;;;;;;5053319;28;20025;-78
2023/12/27 12:23:17;;;;;;;2.92;1.05;;;9.00;99.90;;;;;;5053437;28;20025;-78
2023/12/27 12:25:44;;;;;;;4.95;0.65;;;9.00;99.90;;;;;;5035343;28;20025;-78
2023/12/27 12:28:10;;;;;;;3.33;1.27;;;9.00;99.90;;;;;;5053973;28;20017;-78
2023/12/27 12:30:36;;;;;;;3.70;1.38;;;9.00;99.90;;;;;;5053710;28;20112;-78
2023/12/27 12:33:04;;;;;;;2.30;0.75;;;9.10;99.90;;;;;;5031787;28;20025;-78
2023/12/27 12:35:29;;;;;;;2.65;0.95;;;9.10;99.90;;;;;;5032759;28;20036;-78
2023/12/27 12:37:55;;;;;;;1.40;0.70;;;9.00;99.90;;;;;;5033357;28;20104;-78
2023/12/27 12:40:21;;;;;;;3.08;1.00;;;9.10;99.90;;;;;;5016390;28;20017;-80
2023/12/27 12:42:47;;;;;;;7.43;2.33;;;9.10;99.90;;;;;;5033326;28;20018;-79
2023/12/27 12:45:13;;;;;;;3.78;1.10;;;9.10;99.90;;;;;;5034489;28;20036;-78
2023/12/27 12:47:39;;;;;;;2.58;0.93;;;9.10;99.90;;;;;;5040566;28;20053;-79
2023/12/27 12:50:05;;;;;;;4.15;1.63;;;9.20;99.90;;;;;;5038714;28;20021;-79
2023/12/27 12:52:35;;;;;;;3.55;1.27;;;9.10;99.90;;;;;;5056789;28;20500;-78
2023/12/27 12:55:01;;;;;;;2.42;0.90;;;9.10;99.90;;;;;;5057281;28;20025;-80